Abb Aspendos — TCWY9 — position and weather

sailwx.info

Track history (hours):
 
Tides and Currents Weather Stations Pressure Air Temp Water Temp Dewpoint Dewpoint Depression Visibility Wind Speed Wind Dir Waves Ship Positions

Abb Aspendos

Last reported at 2018-May-15 14:19 UTC. Time now 2018-Jun-18 09:29 UTC.
Position N 36°49' E 030°38'.
Warning: this ship's position is 33 days out of date.

Length 16 m.

Type: Passenger vessel. MMSI: 271040135.

Date/timePositionNaut miles runAvg speedWind from/ knotsBaromVisibWave heightAir tempDewpointWater temp
2018-May-15 14:19N 36°49' E 030°38'512.6
2018-May-15 13:53N 36°53' E 030°42'0 0.0
2018-May-15 13:29N 36°53' E 030°42'0 0.0
2018-May-15 12:59N 36°53' E 030°42'0 0.0
2018-May-15 12:29N 36°53' E 030°42'0 0.0
2018-May-15 11:53N 36°53' E 030°42'0 0.0
2018-May-15 11:29N 36°53' E 030°42'0 0.0
2018-May-15 10:59N 36°53' E 030°42'0 0.0
2018-May-15 10:17N 36°53' E 030°42'0 0.0
2018-May-15 09:47N 36°53' E 030°42'0 0.0
2018-May-15 09:08N 36°53' E 030°42'0 0.0
2018-May-15 08:56N 36°53' E 030°42'0 0.6
2018-May-15 08:29N 36°53' E 030°42'918.0
2018-May-15 08:00N 36°45' E 030°38'918.3
2018-May-15 07:30N 36°36' E 030°34'1 1.5
2018-May-15 07:00N 36°37' E 030°35'917.4
2018-May-15 06:30N 36°45' E 030°38'811.2
2018-May-15 05:45N 36°53' E 030°42'0 0.0
2018-May-15 05:30N 36°53' E 030°42'0 0.0
2018-May-15 05:00N 36°53' E 030°42'0 0.0
2018-May-15 04:21N 36°53' E 030°42'0 0.0
2018-May-15 03:57N 36°53' E 030°42'0 0.0
2018-May-15 03:27N 36°53' E 030°42'0 0.0
2018-May-15 02:51N 36°53' E 030°42'0 0.0
2018-May-15 02:27N 36°53' E 030°42'0 0.0
2018-May-15 01:33N 36°53' E 030°42'0 0.1
2018-May-15 01:30N 36°53' E 030°42'0 0.0
2018-May-15 00:39N 36°53' E 030°42'0 0.0
2018-May-15 00:27N 36°53' E 030°42'0 0.0
2018-May-14 23:06N 36°53' E 030°42'0 0.0
2018-May-14 23:00N 36°53' E 030°42'0 0.0
2018-May-14 22:24N 36°53' E 030°42'0 0.0
2018-May-14 21:57N 36°53' E 030°42'1 0.3
2018-May-14 17:27N 36°52' E 030°41'919.1
2018-May-14 17:00N 36°45' E 030°36'9 4.5
2018-May-14 15:05N 36°36' E 030°34'515.0
2018-May-14 14:47N 36°41' E 030°35'517.4
2018-May-14 14:30N 36°45' E 030°36'9 5.8
2018-May-14 12:56N 36°53' E 030°42'0 0.0
2018-May-14 11:44N 36°53' E 030°42'0 0.0
2018-May-14 09:14N 36°53' E 030°42'0 0.0
2018-May-14 08:56N 36°53' E 030°42'1 2.2
2018-May-14 08:30N 36°52' E 030°41'917.9
2018-May-14 08:00N 36°44' E 030°37'815.5
2018-May-14 07:28N 36°36' E 030°34'6 8.1
2018-May-14 06:42N 36°42' E 030°36'418.2
2018-May-14 06:29N 36°46' E 030°38'8 5.8
2018-May-14 05:06N 36°53' E 030°42'0 0.1
2018-May-14 05:00N 36°53' E 030°42'0 0.0
2018-May-14 04:09N 36°53' E 030°42'0 0.0
2018-May-14 03:51N 36°53' E 030°42'0 0.0
2018-May-14 02:54N 36°53' E 030°42'0 0.0
2018-May-14 02:24N 36°53' E 030°42'0 0.0
2018-May-14 02:00N 36°53' E 030°42'0 0.0
2018-May-14 01:30N 36°53' E 030°42'0 0.0
2018-May-14 00:54N 36°53' E 030°42'0 0.0
2018-May-14 00:30N 36°53' E 030°42'0 0.0
2018-May-14 00:00N 36°53' E 030°42'0 0.0
2018-May-13 23:30N 36°53' E 030°42'0 0.0
2018-May-13 23:00N 36°53' E 030°42'0 0.0
2018-May-13 22:27N 36°53' E 030°42'0 0.0
2018-May-13 21:57N 36°53' E 030°42'0 0.0
2018-May-13 21:30N 36°53' E 030°42'0 0.0
2018-May-13 20:15N 36°53' E 030°42'0 0.0
2018-May-13 19:54N 36°53' E 030°42'0 0.0
2018-May-13 19:27N 36°53' E 030°42'0 0.0
2018-May-13 19:00N 36°53' E 030°42'1 0.6
2018-May-13 17:25N 36°52' E 030°42'818.5
2018-May-13 17:00N 36°45' E 030°38'1018.4
2018-May-13 16:29N 36°36' E 030°34'0 0.1
2018-May-13 15:58N 36°36' E 030°34'0 0.0
2018-May-13 15:28N 36°36' E 030°34'1 1.8
2018-May-13 15:00N 36°37' E 030°35'1018.2
2018-May-13 14:28N 36°46' E 030°38'816.8
2018-May-13 14:00N 36°53' E 030°42'0 0.0
2018-May-13 13:23N 36°53' E 030°42'0 0.0
2018-May-13 12:59N 36°53' E 030°42'0 0.0
2018-May-13 12:29N 36°53' E 030°42'0 0.0
2018-May-13 11:56N 36°53' E 030°42'0 0.0
2018-May-13 11:29N 36°53' E 030°42'0 0.0
2018-May-13 10:59N 36°53' E 030°42'0 0.0
2018-May-13 10:26N 36°53' E 030°42'0 0.0
2018-May-13 09:53N 36°53' E 030°42'0 0.0
2018-May-13 09:29N 36°53' E 030°42'0 0.0
2018-May-13 08:56N 36°53' E 030°42'0 0.0
2018-May-13 08:30N 36°53' E 030°42'816.7
2018-May-13 08:00N 36°46' E 030°38'1019.6
2018-May-13 07:30N 36°36' E 030°34'2 2.9
2018-May-13 06:59N 36°38' E 030°35'918.1
2018-May-13 06:28N 36°46' E 030°39'715.4
2018-May-13 05:59N 36°53' E 030°42'0 0.0
2018-May-13 05:29N 36°53' E 030°42'0 0.0
2018-May-13 04:59N 36°53' E 030°42'0 0.0
2018-May-13 04:29N 36°53' E 030°42'0 0.0
2018-May-13 03:56N 36°53' E 030°42'0 0.0
2018-May-13 03:29N 36°53' E 030°42'0 0.0
2018-May-13 02:56N 36°53' E 030°42'0 0.0
2018-May-13 02:29N 36°53' E 030°42'0 0.0
2018-May-13 01:59N 36°53' E 030°42'0 0.0
2018-May-13 01:29N 36°53' E 030°42'0 0.0
2018-May-13 00:53N 36°53' E 030°42'0 0.0
2018-May-13 00:29N 36°53' E 030°42'0 0.0
2018-May-12 23:59N 36°53' E 030°42'0 0.0
2018-May-12 23:29N 36°53' E 030°42'0 0.0
2018-May-12 22:59N 36°53' E 030°42'0 0.0
2018-May-12 22:26N 36°53' E 030°42'0 0.0
2018-May-12 21:50N 36°53' E 030°42'0 0.0
2018-May-12 21:20N 36°53' E 030°42'0 0.0
2018-May-12 20:59N 36°53' E 030°42'0 0.0
2018-May-12 20:26N 36°53' E 030°42'0 0.0
2018-May-12 19:59N 36°53' E 030°42'7 0.5
2018-May-12 06:25N 36°46' E 030°39'717.3
2018-May-12 06:00N 36°53' E 030°42'0 0.1
2018-May-12 05:27N 36°53' E 030°42'0 0.0
2018-May-12 05:00N 36°53' E 030°42'0 0.0
2018-May-12 04:24N 36°53' E 030°42'0 0.0
2018-May-12 04:00N 36°53' E 030°42'0 0.0
2018-May-12 03:27N 36°53' E 030°42'0 0.0
2018-May-12 02:57N 36°53' E 030°42'0 0.0
2018-May-12 02:27N 36°53' E 030°42'0 0.0
2018-May-12 02:00N 36°53' E 030°42'0 0.0
2018-May-12 01:27N 36°53' E 030°42'0 0.0
2018-May-12 00:57N 36°53' E 030°42'0 0.0
2018-May-12 00:27N 36°53' E 030°42'0 0.0
2018-May-12 00:00N 36°53' E 030°42'0 0.0
2018-May-11 23:30N 36°53' E 030°42'0 0.0
2018-May-11 22:48N 36°53' E 030°42'0 0.0
2018-May-11 22:27N 36°53' E 030°42'0 0.0
2018-May-11 21:57N 36°53' E 030°42'0 0.0
2018-May-11 21:27N 36°53' E 030°42'0 0.0
2018-May-11 20:57N 36°53' E 030°42'0 0.0
2018-May-11 20:30N 36°53' E 030°42'0 0.0
2018-May-11 20:00N 36°53' E 030°42'0 0.0
2018-May-11 19:27N 36°53' E 030°42'0 0.0
2018-May-11 18:57N 36°53' E 030°42'0 0.0
2018-May-11 18:30N 36°53' E 030°42'0 0.0
2018-May-11 17:57N 36°53' E 030°42'0 0.9
2018-May-11 17:24N 36°53' E 030°42'718.6
2018-May-11 17:00N 36°46' E 030°39'918.6
2018-May-11 16:30N 36°37' E 030°35'1 1.5
2018-May-11 15:59N 36°36' E 030°34'0 0.0
2018-May-11 15:26N 36°36' E 030°34'1 2.9
2018-May-11 14:59N 36°37' E 030°35'817.5
2018-May-11 14:30N 36°45' E 030°38'915.1
2018-May-11 13:56N 36°53' E 030°42'0 0.0
2018-May-11 13:26N 36°53' E 030°42'0 0.0
2018-May-11 12:56N 36°53' E 030°42'0 0.0
2018-May-11 12:29N 36°53' E 030°42'0 0.0
2018-May-11 11:59N 36°53' E 030°42'0 0.0
2018-May-11 11:23N 36°53' E 030°42'0 0.0
2018-May-11 10:56N 36°53' E 030°42'0 0.0
2018-May-11 10:20N 36°53' E 030°42'0 0.0
2018-May-11 09:56N 36°53' E 030°42'0 0.0
2018-May-11 09:20N 36°53' E 030°42'0 0.0
2018-May-11 08:59N 36°53' E 030°42'0 0.1
2018-May-11 08:28N 36°53' E 030°42'818.5
2018-May-11 08:00N 36°45' E 030°38'918.5
2018-May-11 07:30N 36°36' E 030°34'0 0.7
2018-May-11 07:00N 36°36' E 030°34'917.8
2018-May-11 06:30N 36°44' E 030°38'915.3
2018-May-11 05:54N 36°53' E 030°42'0 0.0
2018-May-11 05:30N 36°53' E 030°42'0 0.0
2018-May-11 05:00N 36°53' E 030°42'0 0.0
2018-May-11 04:27N 36°53' E 030°42'0 0.0
2018-May-11 04:00N 36°53' E 030°42'0 0.0
2018-May-11 03:30N 36°53' E 030°42'0 0.0
2018-May-11 03:00N 36°53' E 030°42'0 0.0
2018-May-11 02:24N 36°53' E 030°42'0 0.0
2018-May-11 02:00N 36°53' E 030°42'0 0.0
2018-May-11 01:18N 36°53' E 030°42'0 0.0
2018-May-11 00:54N 36°53' E 030°42'0 0.0
2018-May-11 00:27N 36°53' E 030°42'0 0.0
2018-May-10 23:51N 36°53' E 030°42'0 0.0
2018-May-10 23:27N 36°53' E 030°42'0 0.0
2018-May-10 22:57N 36°53' E 030°42'0 0.0
2018-May-10 22:30N 36°53' E 030°42'0 0.0
2018-May-10 21:57N 36°53' E 030°42'0 0.0
2018-May-10 21:30N 36°53' E 030°42'0 0.0
2018-May-10 20:57N 36°53' E 030°42'0 0.0
2018-May-10 20:27N 36°53' E 030°42'0 0.0
2018-May-10 19:48N 36°53' E 030°42'0 0.0
2018-May-10 19:27N 36°53' E 030°42'0 0.0
2018-May-10 19:00N 36°53' E 030°42'0 0.0
2018-May-10 18:27N 36°53' E 030°42'0 0.0
2018-May-10 17:15N 36°53' E 030°42'0 0.0
2018-May-10 16:57N 36°53' E 030°42'0 0.0
2018-May-10 16:24N 36°53' E 030°42'0 0.0
2018-May-10 16:00N 36°53' E 030°42'0 0.0
2018-May-10 15:30N 36°53' E 030°42'0 0.0
2018-May-10 15:00N 36°53' E 030°42'0 0.0
2018-May-10 14:30N 36°53' E 030°42'0 0.0
2018-May-10 14:00N 36°53' E 030°42'0 0.0
2018-May-10 13:24N 36°53' E 030°42'0 0.0
2018-May-10 13:00N 36°53' E 030°42'0 0.0
2018-May-10 11:45N 36°53' E 030°42'0 0.0
2018-May-10 11:12N 36°53' E 030°42'0 0.0
2018-May-10 11:00N 36°53' E 030°42'0 0.0
2018-May-10 10:24N 36°53' E 030°42'0 0.0
2018-May-10 09:24N 36°53' E 030°42'0 0.0
2018-May-10 08:54N 36°53' E 030°42'1 1.5
2018-May-10 08:30N 36°53' E 030°42'918.0
2018-May-10 08:00N 36°45' E 030°36'917.1
2018-May-10 07:29N 36°36' E 030°34'0 0.2
2018-May-10 07:00N 36°36' E 030°34'918.2
2018-May-10 06:30N 36°45' E 030°38'917.4
2018-May-10 05:59N 36°53' E 030°42'0 0.0
2018-May-10 05:28N 36°53' E 030°42'0 0.0
2018-May-10 04:58N 36°53' E 030°42'0 0.0
2018-May-10 04:28N 36°53' E 030°42'0 0.0
2018-May-10 03:58N 36°53' E 030°42'0 0.0
2018-May-10 03:28N 36°53' E 030°42'0 0.0
2018-May-10 02:46N 36°53' E 030°42'0 0.0
2018-May-10 02:28N 36°53' E 030°42'0 0.0
2018-May-10 01:58N 36°53' E 030°42'0 0.0
2018-May-10 01:19N 36°53' E 030°42'0 0.0
2018-May-10 00:58N 36°53' E 030°42'0 0.0
2018-May-10 00:28N 36°53' E 030°42'0 0.0
2018-May-09 23:55N 36°53' E 030°42'0 0.0
2018-May-09 23:25N 36°53' E 030°42'0 0.0
2018-May-09 22:49N 36°53' E 030°42'0 0.0
2018-May-09 22:25N 36°53' E 030°42'0 0.0
2018-May-09 21:58N 36°53' E 030°42'0 0.0
2018-May-09 21:28N 36°53' E 030°42'0 0.0
2018-May-09 20:55N 36°53' E 030°42'14 3.3
2018-May-09 16:47N 36°40' E 030°36'412.2
2018-May-09 16:26N 36°36' E 030°34'0 0.0
2018-May-09 15:56N 36°36' E 030°34'0 0.0
2018-May-09 15:29N 36°36' E 030°34'4 8.9
2018-May-09 15:00N 36°40' E 030°35'814.8
2018-May-09 14:30N 36°47' E 030°37'712.1
2018-May-09 13:56N 36°53' E 030°42'0 0.0
2018-May-09 13:24N 36°53' E 030°42'0 0.0
2018-May-09 12:57N 36°53' E 030°42'0 0.0
2018-May-09 12:21N 36°53' E 030°42'0 0.0
2018-May-09 12:00N 36°53' E 030°42'0 0.0
2018-May-09 11:30N 36°53' E 030°42'0 0.0
2018-May-09 11:00N 36°53' E 030°42'0 0.0
2018-May-09 10:21N 36°53' E 030°42'0 0.0
2018-May-09 09:57N 36°53' E 030°42'0 0.0
2018-May-09 09:30N 36°53' E 030°42'0 0.0
2018-May-09 09:00N 36°53' E 030°42'1 1.1
2018-May-09 08:29N 36°53' E 030°42'918.8
2018-May-09 08:00N 36°44' E 030°38'916.5
2018-May-09 07:29N 36°36' E 030°34'0 0.0
2018-May-09 07:00N 36°36' E 030°34'917.5
2018-May-09 06:30N 36°44' E 030°38'917.9
2018-May-09 05:59N 36°53' E 030°42'0 0.0
2018-May-09 05:26N 36°53' E 030°42'0 0.0
2018-May-09 04:56N 36°53' E 030°42'0 0.0
2018-May-09 04:29N 36°53' E 030°42'0 0.0
2018-May-09 03:59N 36°53' E 030°42'0 0.0
2018-May-09 03:29N 36°53' E 030°42'0 0.0
2018-May-09 02:59N 36°53' E 030°42'0 0.0
2018-May-09 02:29N 36°53' E 030°42'0 0.0
2018-May-09 01:59N 36°53' E 030°42'0 0.0
2018-May-09 01:29N 36°53' E 030°42'0 0.0
2018-May-09 00:59N 36°53' E 030°42'0 0.0
2018-May-09 00:29N 36°53' E 030°42'0 0.0
2018-May-08 23:53N 36°53' E 030°42'0 0.0
2018-May-08 23:29N 36°53' E 030°42'0 0.0
2018-May-08 22:59N 36°53' E 030°42'0 0.0
2018-May-08 22:29N 36°53' E 030°42'0 0.0
2018-May-08 21:59N 36°53' E 030°42'0 0.0
2018-May-08 21:29N 36°53' E 030°42'0 0.0
2018-May-08 20:59N 36°53' E 030°42'0 0.0
2018-May-08 20:23N 36°53' E 030°42'0 0.0
2018-May-08 19:56N 36°53' E 030°42'0 0.0
2018-May-08 19:29N 36°53' E 030°42'0 0.0
2018-May-08 18:56N 36°53' E 030°42'0 0.0
2018-May-08 18:29N 36°53' E 030°42'0 0.0
2018-May-08 17:59N 36°53' E 030°42'0 0.0
2018-May-08 17:23N 36°53' E 030°42'0 0.0
2018-May-08 16:59N 36°53' E 030°42'0 0.0
2018-May-08 16:29N 36°53' E 030°42'0 0.0
2018-May-08 15:59N 36°53' E 030°42'0 0.0
2018-May-08 15:23N 36°53' E 030°42'0 0.0
2018-May-08 14:59N 36°53' E 030°42'0 0.0
2018-May-08 14:29N 36°53' E 030°42'0 0.0
2018-May-08 13:50N 36°53' E 030°42'0 0.0
2018-May-08 13:29N 36°53' E 030°42'0 0.0
2018-May-08 12:53N 36°53' E 030°42'0 0.0
2018-May-08 12:29N 36°53' E 030°42'0 0.0
2018-May-08 11:59N 36°53' E 030°42'0 0.0
2018-May-08 11:29N 36°53' E 030°42'0 0.0
2018-May-08 10:56N 36°53' E 030°42'0 0.0
2018-May-08 10:26N 36°53' E 030°42'0 0.0
2018-May-08 09:53N 36°53' E 030°42'0 0.0
2018-May-08 09:26N 36°53' E 030°42'0 0.0
2018-May-08 08:59N 36°53' E 030°42'0 0.0
2018-May-08 08:26N 36°53' E 030°42'0 0.0
2018-May-08 07:56N 36°53' E 030°42'0 0.0
2018-May-08 07:29N 36°53' E 030°42'0 0.0
2018-May-08 06:56N 36°53' E 030°42'0 0.0
2018-May-08 06:29N 36°53' E 030°42'0 0.0
2018-May-08 05:59N 36°53' E 030°42'0 0.0
2018-May-08 05:26N 36°53' E 030°42'0 0.0
2018-May-08 04:59N 36°53' E 030°42'0 0.0
2018-May-08 04:29N 36°53' E 030°42'0 0.0
2018-May-08 03:59N 36°53' E 030°42'0 0.0
2018-May-08 03:29N 36°53' E 030°42'0 0.0
2018-May-08 02:59N 36°53' E 030°42'0 0.0
2018-May-08 02:26N 36°53' E 030°42'0 0.0
2018-May-08 01:56N 36°53' E 030°42'0 0.0
2018-May-08 01:29N 36°53' E 030°42'0 0.0
2018-May-08 00:59N 36°53' E 030°42'0 0.0
2018-May-08 00:29N 36°53' E 030°42'0 0.0
2018-May-07 23:59N 36°53' E 030°42'0 0.0
2018-May-07 23:26N 36°53' E 030°42'0 0.0
2018-May-07 22:59N 36°53' E 030°42'0 0.0
2018-May-07 22:29N 36°53' E 030°42'0 0.0
2018-May-07 21:53N 36°53' E 030°42'0 0.0
2018-May-07 21:29N 36°53' E 030°42'0 0.0
2018-May-07 20:53N 36°53' E 030°42'0 0.0
2018-May-07 20:23N 36°53' E 030°42'0 0.0
2018-May-07 19:59N 36°53' E 030°42'0 0.0
2018-May-07 19:26N 36°53' E 030°42'0 0.0
2018-May-07 18:56N 36°53' E 030°42'0 0.0
2018-May-07 18:29N 36°53' E 030°42'0 0.0
2018-May-07 17:56N 36°53' E 030°42'2 3.7
2018-May-07 17:29N 36°52' E 030°41'817.8
2018-May-07 17:00N 36°44' E 030°37'814.0
2018-May-07 16:26N 36°36' E 030°34'0 0.0
2018-May-07 15:57N 36°36' E 030°34'0 0.0
2018-May-07 15:30N 36°36' E 030°34'2 2.9
2018-May-07 14:59N 36°38' E 030°34'817.3
2018-May-07 14:30N 36°46' E 030°37'815.6
2018-May-07 13:57N 36°53' E 030°42'0 0.0
2018-May-07 13:30N 36°53' E 030°42'0 0.0
2018-May-07 13:00N 36°53' E 030°42'0 0.0
2018-May-07 12:30N 36°53' E 030°42'0 0.0
2018-May-07 12:00N 36°53' E 030°42'0 0.0
2018-May-07 11:21N 36°53' E 030°42'0 0.0
2018-May-07 11:00N 36°53' E 030°42'0 0.0
2018-May-07 10:30N 36°53' E 030°42'0 0.0
2018-May-07 09:48N 36°53' E 030°42'0 0.0
2018-May-07 09:27N 36°53' E 030°42'0 0.0
2018-May-07 09:00N 36°53' E 030°42'1 1.2
2018-May-07 08:30N 36°53' E 030°42'918.4
2018-May-07 08:00N 36°44' E 030°37'917.1
2018-May-07 07:30N 36°36' E 030°34'0 0.1
2018-May-07 07:01N 36°36' E 030°34'917.9
2018-May-07 06:31N 36°44' E 030°38'914.2
2018-May-07 05:52N 36°53' E 030°42'0 0.0
2018-May-07 05:28N 36°53' E 030°42'0 0.0
2018-May-07 04:55N 36°53' E 030°42'0 0.0
2018-May-07 04:28N 36°53' E 030°42'0 0.0
2018-May-07 03:58N 36°53' E 030°42'0 0.0
2018-May-07 03:28N 36°53' E 030°42'0 0.0
2018-May-07 02:58N 36°53' E 030°42'0 0.0
2018-May-07 02:28N 36°53' E 030°42'0 0.0
2018-May-07 01:58N 36°53' E 030°42'0 0.0
2018-May-07 01:28N 36°53' E 030°42'0 0.0
2018-May-07 00:58N 36°53' E 030°42'0 0.0
2018-May-07 00:28N 36°53' E 030°42'0 0.0
2018-May-06 23:58N 36°53' E 030°42'0 0.0
2018-May-06 23:16N 36°53' E 030°42'0 0.0
2018-May-06 22:55N 36°53' E 030°42'0 0.0
2018-May-06 22:25N 36°53' E 030°42'0 0.0
2018-May-06 21:58N 36°53' E 030°42'0 0.0
2018-May-06 21:28N 36°53' E 030°42'0 0.0
2018-May-06 20:52N 36°53' E 030°42'0 0.0
2018-May-06 20:25N 36°53' E 030°42'0 0.0
2018-May-06 19:58N 36°53' E 030°42'0 0.0
2018-May-06 19:25N 36°53' E 030°42'0 0.0
2018-May-06 18:58N 36°53' E 030°42'0 0.0
2018-May-06 18:28N 36°53' E 030°42'0 0.0
2018-May-06 17:31N 36°53' E 030°42'0 0.0
2018-May-06 17:19N 36°53' E 030°42'0 0.0
2018-May-06 15:37N 36°53' E 030°42'0 0.0
2018-May-06 15:28N 36°53' E 030°42'0 0.0
2018-May-06 14:55N 36°53' E 030°42'0 0.0
2018-May-06 14:28N 36°53' E 030°42'0 0.0
2018-May-06 13:58N 36°53' E 030°42'0 0.0
2018-May-06 13:25N 36°53' E 030°42'0 0.0
2018-May-06 12:52N 36°53' E 030°42'0 0.0
2018-May-06 12:28N 36°53' E 030°42'0 0.0
2018-May-06 11:58N 36°53' E 030°42'0 0.0
2018-May-06 11:16N 36°53' E 030°42'0 0.0
2018-May-06 10:52N 36°53' E 030°42'0 0.0
2018-May-06 10:28N 36°53' E 030°42'0 0.0
2018-May-06 09:58N 36°53' E 030°42'0 0.0
2018-May-06 09:28N 36°53' E 030°42'0 0.0
2018-May-06 08:58N 36°53' E 030°42'0 0.0
2018-May-06 08:22N 36°53' E 030°42'0 0.0
2018-May-06 07:58N 36°53' E 030°42'0 0.0
2018-May-06 07:25N 36°53' E 030°42'0 0.0
2018-May-06 06:58N 36°53' E 030°42'0 0.0
2018-May-06 06:22N 36°53' E 030°42'0 0.0
2018-May-06 05:55N 36°53' E 030°42'0 0.0
2018-May-06 05:22N 36°53' E 030°42'0 0.0
2018-May-06 04:49N 36°53' E 030°42'0 0.0
2018-May-06 04:28N 36°53' E 030°42'0 0.0
2018-May-06 03:52N 36°53' E 030°42'0 0.0
2018-May-06 03:25N 36°53' E 030°42'0 0.0
2018-May-06 01:25N 36°53' E 030°42'0 0.0
2018-May-06 00:49N 36°53' E 030°42'0 0.0
2018-May-06 00:10N 36°53' E 030°42'0 0.0
2018-May-05 23:55N 36°53' E 030°42'0 0.0
2018-May-05 22:13N 36°53' E 030°42'0 0.0
2018-May-05 21:49N 36°53' E 030°42'0 0.0
2018-May-05 21:19N 36°53' E 030°42'0 0.0
2018-May-05 20:55N 36°53' E 030°42'0 0.0
2018-May-05 20:25N 36°53' E 030°42'0 0.0
2018-May-05 19:55N 36°53' E 030°42'0 0.0
2018-May-05 18:25N 36°53' E 030°42'0 0.4
2018-May-05 17:28N 36°53' E 030°42'918.4
2018-May-05 17:00N 36°45' E 030°38'918.2
2018-May-05 16:30N 36°36' E 030°34'0 0.1
2018-May-05 15:58N 36°36' E 030°34'0 0.0
2018-May-05 15:24N 36°36' E 030°34'2 3.5
2018-May-05 14:57N 36°38' E 030°35'818.0
2018-May-05 14:31N 36°45' E 030°38'  
Track history (hours):
 
Tides and Currents Weather Stations Pressure Air Temp Water Temp Dewpoint Dewpoint Depression Visibility Wind Speed Wind Dir Waves Ship Positions

Abb Aspendos

Last reported at 2018-May-15 14:19 UTC. Time now 2018-Jun-18 09:29 UTC.
Position N 36°49' E 030°38'.
Warning: this ship's position is 33 days out of date.

Length 16 m.

Type: Passenger vessel. MMSI: 271040135.

Date/timePositionNaut miles runAvg speedWind from/ knotsBaromVisibWave heightAir tempDewpointWater temp
2018-May-15 14:19N 36°49' E 030°38'512.6
2018-May-15 13:53N 36°53' E 030°42'0 0.0
2018-May-15 13:29N 36°53' E 030°42'0 0.0
2018-May-15 12:59N 36°53' E 030°42'0 0.0
2018-May-15 12:29N 36°53' E 030°42'0 0.0
2018-May-15 11:53N 36°53' E 030°42'0 0.0
2018-May-15 11:29N 36°53' E 030°42'0 0.0
2018-May-15 10:59N 36°53' E 030°42'0 0.0
2018-May-15 10:17N 36°53' E 030°42'0 0.0
2018-May-15 09:47N 36°53' E 030°42'0 0.0
2018-May-15 09:08N 36°53' E 030°42'0 0.0
2018-May-15 08:56N 36°53' E 030°42'0 0.6
2018-May-15 08:29N 36°53' E 030°42'918.0
2018-May-15 08:00N 36°45' E 030°38'918.3
2018-May-15 07:30N 36°36' E 030°34'1 1.5
2018-May-15 07:00N 36°37' E 030°35'917.4
2018-May-15 06:30N 36°45' E 030°38'811.2
2018-May-15 05:45N 36°53' E 030°42'0 0.0
2018-May-15 05:30N 36°53' E 030°42'0 0.0
2018-May-15 05:00N 36°53' E 030°42'0 0.0
2018-May-15 04:21N 36°53' E 030°42'0 0.0
2018-May-15 03:57N 36°53' E 030°42'0 0.0
2018-May-15 03:27N 36°53' E 030°42'0 0.0
2018-May-15 02:51N 36°53' E 030°42'0 0.0
2018-May-15 02:27N 36°53' E 030°42'0 0.0
2018-May-15 01:33N 36°53' E 030°42'0 0.1
2018-May-15 01:30N 36°53' E 030°42'0 0.0
2018-May-15 00:39N 36°53' E 030°42'0 0.0
2018-May-15 00:27N 36°53' E 030°42'0 0.0
2018-May-14 23:06N 36°53' E 030°42'0 0.0
2018-May-14 23:00N 36°53' E 030°42'0 0.0
2018-May-14 22:24N 36°53' E 030°42'0 0.0
2018-May-14 21:57N 36°53' E 030°42'1 0.3
2018-May-14 17:27N 36°52' E 030°41'919.1
2018-May-14 17:00N 36°45' E 030°36'9 4.5
2018-May-14 15:05N 36°36' E 030°34'515.0
2018-May-14 14:47N 36°41' E 030°35'517.4
2018-May-14 14:30N 36°45' E 030°36'9 5.8
2018-May-14 12:56N 36°53' E 030°42'0 0.0
2018-May-14 11:44N 36°53' E 030°42'0 0.0
2018-May-14 09:14N 36°53' E 030°42'0 0.0
2018-May-14 08:56N 36°53' E 030°42'1 2.2
2018-May-14 08:30N 36°52' E 030°41'917.9
2018-May-14 08:00N 36°44' E 030°37'815.5
2018-May-14 07:28N 36°36' E 030°34'6 8.1
2018-May-14 06:42N 36°42' E 030°36'418.2
2018-May-14 06:29N 36°46' E 030°38'8 5.8
2018-May-14 05:06N 36°53' E 030°42'0 0.1
2018-May-14 05:00N 36°53' E 030°42'0 0.0
2018-May-14 04:09N 36°53' E 030°42'0 0.0
2018-May-14 03:51N 36°53' E 030°42'0 0.0
2018-May-14 02:54N 36°53' E 030°42'0 0.0
2018-May-14 02:24N 36°53' E 030°42'0 0.0
2018-May-14 02:00N 36°53' E 030°42'0 0.0
2018-May-14 01:30N 36°53' E 030°42'0 0.0
2018-May-14 00:54N 36°53' E 030°42'0 0.0
2018-May-14 00:30N 36°53' E 030°42'0 0.0
2018-May-14 00:00N 36°53' E 030°42'0 0.0
2018-May-13 23:30N 36°53' E 030°42'0 0.0
2018-May-13 23:00N 36°53' E 030°42'0 0.0
2018-May-13 22:27N 36°53' E 030°42'0 0.0
2018-May-13 21:57N 36°53' E 030°42'0 0.0
2018-May-13 21:30N 36°53' E 030°42'0 0.0
2018-May-13 20:15N 36°53' E 030°42'0 0.0
2018-May-13 19:54N 36°53' E 030°42'0 0.0
2018-May-13 19:27N 36°53' E 030°42'0 0.0
2018-May-13 19:00N 36°53' E 030°42'1 0.6
2018-May-13 17:25N 36°52' E 030°42'818.5
2018-May-13 17:00N 36°45' E 030°38'1018.4
2018-May-13 16:29N 36°36' E 030°34'0 0.1
2018-May-13 15:58N 36°36' E 030°34'0 0.0
2018-May-13 15:28N 36°36' E 030°34'1 1.8
2018-May-13 15:00N 36°37' E 030°35'1018.2
2018-May-13 14:28N 36°46' E 030°38'816.8
2018-May-13 14:00N 36°53' E 030°42'0 0.0
2018-May-13 13:23N 36°53' E 030°42'0 0.0
2018-May-13 12:59N 36°53' E 030°42'0 0.0
2018-May-13 12:29N 36°53' E 030°42'0 0.0
2018-May-13 11:56N 36°53' E 030°42'0 0.0
2018-May-13 11:29N 36°53' E 030°42'0 0.0
2018-May-13 10:59N 36°53' E 030°42'0 0.0
2018-May-13 10:26N 36°53' E 030°42'0 0.0
2018-May-13 09:53N 36°53' E 030°42'0 0.0
2018-May-13 09:29N 36°53' E 030°42'0 0.0
2018-May-13 08:56N 36°53' E 030°42'0 0.0
2018-May-13 08:30N 36°53' E 030°42'816.7
2018-May-13 08:00N 36°46' E 030°38'1019.6
2018-May-13 07:30N 36°36' E 030°34'2 2.9
2018-May-13 06:59N 36°38' E 030°35'918.1
2018-May-13 06:28N 36°46' E 030°39'715.4
2018-May-13 05:59N 36°53' E 030°42'0 0.0
2018-May-13 05:29N 36°53' E 030°42'0 0.0
2018-May-13 04:59N 36°53' E 030°42'0 0.0
2018-May-13 04:29N 36°53' E 030°42'0 0.0
2018-May-13 03:56N 36°53' E 030°42'0 0.0
2018-May-13 03:29N 36°53' E 030°42'0 0.0
2018-May-13 02:56N 36°53' E 030°42'0 0.0
2018-May-13 02:29N 36°53' E 030°42'0 0.0
2018-May-13 01:59N 36°53' E 030°42'0 0.0
2018-May-13 01:29N 36°53' E 030°42'0 0.0
2018-May-13 00:53N 36°53' E 030°42'0 0.0
2018-May-13 00:29N 36°53' E 030°42'0 0.0
2018-May-12 23:59N 36°53' E 030°42'0 0.0
2018-May-12 23:29N 36°53' E 030°42'0 0.0
2018-May-12 22:59N 36°53' E 030°42'0 0.0
2018-May-12 22:26N 36°53' E 030°42'0 0.0
2018-May-12 21:50N 36°53' E 030°42'0 0.0
2018-May-12 21:20N 36°53' E 030°42'0 0.0
2018-May-12 20:59N 36°53' E 030°42'0 0.0
2018-May-12 20:26N 36°53' E 030°42'0 0.0
2018-May-12 19:59N 36°53' E 030°42'7 0.5
2018-May-12 06:25N 36°46' E 030°39'717.3
2018-May-12 06:00N 36°53' E 030°42'0 0.1
2018-May-12 05:27N 36°53' E 030°42'0 0.0
2018-May-12 05:00N 36°53' E 030°42'0 0.0
2018-May-12 04:24N 36°53' E 030°42'0 0.0
2018-May-12 04:00N 36°53' E 030°42'0 0.0
2018-May-12 03:27N 36°53' E 030°42'0 0.0
2018-May-12 02:57N 36°53' E 030°42'0 0.0
2018-May-12 02:27N 36°53' E 030°42'0 0.0
2018-May-12 02:00N 36°53' E 030°42'0 0.0
2018-May-12 01:27N 36°53' E 030°42'0 0.0
2018-May-12 00:57N 36°53' E 030°42'0 0.0
2018-May-12 00:27N 36°53' E 030°42'0 0.0
2018-May-12 00:00N 36°53' E 030°42'0 0.0
2018-May-11 23:30N 36°53' E 030°42'0 0.0
2018-May-11 22:48N 36°53' E 030°42'0 0.0
2018-May-11 22:27N 36°53' E 030°42'0 0.0
2018-May-11 21:57N 36°53' E 030°42'0 0.0
2018-May-11 21:27N 36°53' E 030°42'0 0.0
2018-May-11 20:57N 36°53' E 030°42'0 0.0
2018-May-11 20:30N 36°53' E 030°42'0 0.0
2018-May-11 20:00N 36°53' E 030°42'0 0.0
2018-May-11 19:27N 36°53' E 030°42'0 0.0
2018-May-11 18:57N 36°53' E 030°42'0 0.0
2018-May-11 18:30N 36°53' E 030°42'0 0.0
2018-May-11 17:57N 36°53' E 030°42'0 0.9
2018-May-11 17:24N 36°53' E 030°42'718.6
2018-May-11 17:00N 36°46' E 030°39'918.6
2018-May-11 16:30N 36°37' E 030°35'1 1.5
2018-May-11 15:59N 36°36' E 030°34'0 0.0
2018-May-11 15:26N 36°36' E 030°34'1 2.9
2018-May-11 14:59N 36°37' E 030°35'817.5
2018-May-11 14:30N 36°45' E 030°38'915.1
2018-May-11 13:56N 36°53' E 030°42'0 0.0
2018-May-11 13:26N 36°53' E 030°42'0 0.0
2018-May-11 12:56N 36°53' E 030°42'0 0.0
2018-May-11 12:29N 36°53' E 030°42'0 0.0
2018-May-11 11:59N 36°53' E 030°42'0 0.0
2018-May-11 11:23N 36°53' E 030°42'0 0.0
2018-May-11 10:56N 36°53' E 030°42'0 0.0
2018-May-11 10:20N 36°53' E 030°42'0 0.0
2018-May-11 09:56N 36°53' E 030°42'0 0.0
2018-May-11 09:20N 36°53' E 030°42'0 0.0
2018-May-11 08:59N 36°53' E 030°42'0 0.1
2018-May-11 08:28N 36°53' E 030°42'818.5
2018-May-11 08:00N 36°45' E 030°38'918.5
2018-May-11 07:30N 36°36' E 030°34'0 0.7
2018-May-11 07:00N 36°36' E 030°34'917.8
2018-May-11 06:30N 36°44' E 030°38'915.3
2018-May-11 05:54N 36°53' E 030°42'0 0.0
2018-May-11 05:30N 36°53' E 030°42'0 0.0
2018-May-11 05:00N 36°53' E 030°42'0 0.0
2018-May-11 04:27N 36°53' E 030°42'0 0.0
2018-May-11 04:00N 36°53' E 030°42'0 0.0
2018-May-11 03:30N 36°53' E 030°42'0 0.0
2018-May-11 03:00N 36°53' E 030°42'0 0.0
2018-May-11 02:24N 36°53' E 030°42'0 0.0
2018-May-11 02:00N 36°53' E 030°42'0 0.0
2018-May-11 01:18N 36°53' E 030°42'0 0.0
2018-May-11 00:54N 36°53' E 030°42'0 0.0
2018-May-11 00:27N 36°53' E 030°42'0 0.0
2018-May-10 23:51N 36°53' E 030°42'0 0.0
2018-May-10 23:27N 36°53' E 030°42'0 0.0
2018-May-10 22:57N 36°53' E 030°42'0 0.0
2018-May-10 22:30N 36°53' E 030°42'0 0.0
2018-May-10 21:57N 36°53' E 030°42'0 0.0
2018-May-10 21:30N 36°53' E 030°42'0 0.0
2018-May-10 20:57N 36°53' E 030°42'0 0.0
2018-May-10 20:27N 36°53' E 030°42'0 0.0
2018-May-10 19:48N 36°53' E 030°42'0 0.0
2018-May-10 19:27N 36°53' E 030°42'0 0.0
2018-May-10 19:00N 36°53' E 030°42'0 0.0
2018-May-10 18:27N 36°53' E 030°42'0 0.0
2018-May-10 17:15N 36°53' E 030°42'0 0.0
2018-May-10 16:57N 36°53' E 030°42'0 0.0
2018-May-10 16:24N 36°53' E 030°42'0 0.0
2018-May-10 16:00N 36°53' E 030°42'0 0.0
2018-May-10 15:30N 36°53' E 030°42'0 0.0
2018-May-10 15:00N 36°53' E 030°42'0 0.0
2018-May-10 14:30N 36°53' E 030°42'0 0.0
2018-May-10 14:00N 36°53' E 030°42'0 0.0
2018-May-10 13:24N 36°53' E 030°42'0 0.0
2018-May-10 13:00N 36°53' E 030°42'0 0.0
2018-May-10 11:45N 36°53' E 030°42'0 0.0
2018-May-10 11:12N 36°53' E 030°42'0 0.0
2018-May-10 11:00N 36°53' E 030°42'0 0.0
2018-May-10 10:24N 36°53' E 030°42'0 0.0
2018-May-10 09:24N 36°53' E 030°42'0 0.0
2018-May-10 08:54N 36°53' E 030°42'1 1.5
2018-May-10 08:30N 36°53' E 030°42'918.0
2018-May-10 08:00N 36°45' E 030°36'917.1
2018-May-10 07:29N 36°36' E 030°34'0 0.2
2018-May-10 07:00N 36°36' E 030°34'918.2
2018-May-10 06:30N 36°45' E 030°38'917.4
2018-May-10 05:59N 36°53' E 030°42'0 0.0
2018-May-10 05:28N 36°53' E 030°42'0 0.0
2018-May-10 04:58N 36°53' E 030°42'0 0.0
2018-May-10 04:28N 36°53' E 030°42'0 0.0
2018-May-10 03:58N 36°53' E 030°42'0 0.0
2018-May-10 03:28N 36°53' E 030°42'0 0.0
2018-May-10 02:46N 36°53' E 030°42'0 0.0
2018-May-10 02:28N 36°53' E 030°42'0 0.0
2018-May-10 01:58N 36°53' E 030°42'0 0.0
2018-May-10 01:19N 36°53' E 030°42'0 0.0
2018-May-10 00:58N 36°53' E 030°42'0 0.0
2018-May-10 00:28N 36°53' E 030°42'0 0.0
2018-May-09 23:55N 36°53' E 030°42'0 0.0
2018-May-09 23:25N 36°53' E 030°42'0 0.0
2018-May-09 22:49N 36°53' E 030°42'0 0.0
2018-May-09 22:25N 36°53' E 030°42'0 0.0
2018-May-09 21:58N 36°53' E 030°42'0 0.0
2018-May-09 21:28N 36°53' E 030°42'0 0.0
2018-May-09 20:55N 36°53' E 030°42'14 3.3
2018-May-09 16:47N 36°40' E 030°36'412.2
2018-May-09 16:26N 36°36' E 030°34'0 0.0
2018-May-09 15:56N 36°36' E 030°34'0 0.0
2018-May-09 15:29N 36°36' E 030°34'4 8.9
2018-May-09 15:00N 36°40' E 030°35'814.8
2018-May-09 14:30N 36°47' E 030°37'712.1
2018-May-09 13:56N 36°53' E 030°42'0 0.0
2018-May-09 13:24N 36°53' E 030°42'0 0.0
2018-May-09 12:57N 36°53' E 030°42'0 0.0
2018-May-09 12:21N 36°53' E 030°42'0 0.0
2018-May-09 12:00N 36°53' E 030°42'0 0.0
2018-May-09 11:30N 36°53' E 030°42'0 0.0
2018-May-09 11:00N 36°53' E 030°42'0 0.0
2018-May-09 10:21N 36°53' E 030°42'0 0.0
2018-May-09 09:57N 36°53' E 030°42'0 0.0
2018-May-09 09:30N 36°53' E 030°42'0 0.0
2018-May-09 09:00N 36°53' E 030°42'1 1.1
2018-May-09 08:29N 36°53' E 030°42'918.8
2018-May-09 08:00N 36°44' E 030°38'916.5
2018-May-09 07:29N 36°36' E 030°34'0 0.0
2018-May-09 07:00N 36°36' E 030°34'917.5
2018-May-09 06:30N 36°44' E 030°38'917.9
2018-May-09 05:59N 36°53' E 030°42'0 0.0
2018-May-09 05:26N 36°53' E 030°42'0 0.0
2018-May-09 04:56N 36°53' E 030°42'0 0.0
2018-May-09 04:29N 36°53' E 030°42'0 0.0
2018-May-09 03:59N 36°53' E 030°42'0 0.0
2018-May-09 03:29N 36°53' E 030°42'0 0.0
2018-May-09 02:59N 36°53' E 030°42'0 0.0
2018-May-09 02:29N 36°53' E 030°42'0 0.0
2018-May-09 01:59N 36°53' E 030°42'0 0.0
2018-May-09 01:29N 36°53' E 030°42'0 0.0
2018-May-09 00:59N 36°53' E 030°42'0 0.0
2018-May-09 00:29N 36°53' E 030°42'0 0.0
2018-May-08 23:53N 36°53' E 030°42'0 0.0
2018-May-08 23:29N 36°53' E 030°42'0 0.0
2018-May-08 22:59N 36°53' E 030°42'0 0.0
2018-May-08 22:29N 36°53' E 030°42'0 0.0
2018-May-08 21:59N 36°53' E 030°42'0 0.0
2018-May-08 21:29N 36°53' E 030°42'0 0.0
2018-May-08 20:59N 36°53' E 030°42'0 0.0
2018-May-08 20:23N 36°53' E 030°42'0 0.0
2018-May-08 19:56N 36°53' E 030°42'0 0.0
2018-May-08 19:29N 36°53' E 030°42'0 0.0
2018-May-08 18:56N 36°53' E 030°42'0 0.0
2018-May-08 18:29N 36°53' E 030°42'0 0.0
2018-May-08 17:59N 36°53' E 030°42'0 0.0
2018-May-08 17:23N 36°53' E 030°42'0 0.0
2018-May-08 16:59N 36°53' E 030°42'0 0.0
2018-May-08 16:29N 36°53' E 030°42'0 0.0
2018-May-08 15:59N 36°53' E 030°42'0 0.0
2018-May-08 15:23N 36°53' E 030°42'0 0.0
2018-May-08 14:59N 36°53' E 030°42'0 0.0
2018-May-08 14:29N 36°53' E 030°42'0 0.0
2018-May-08 13:50N 36°53' E 030°42'0 0.0
2018-May-08 13:29N 36°53' E 030°42'0 0.0
2018-May-08 12:53N 36°53' E 030°42'0 0.0
2018-May-08 12:29N 36°53' E 030°42'0 0.0
2018-May-08 11:59N 36°53' E 030°42'0 0.0
2018-May-08 11:29N 36°53' E 030°42'0 0.0
2018-May-08 10:56N 36°53' E 030°42'0 0.0
2018-May-08 10:26N 36°53' E 030°42'0 0.0
2018-May-08 09:53N 36°53' E 030°42'0 0.0
2018-May-08 09:26N 36°53' E 030°42'0 0.0
2018-May-08 08:59N 36°53' E 030°42'0 0.0
2018-May-08 08:26N 36°53' E 030°42'0 0.0
2018-May-08 07:56N 36°53' E 030°42'0 0.0
2018-May-08 07:29N 36°53' E 030°42'0 0.0
2018-May-08 06:56N 36°53' E 030°42'0 0.0
2018-May-08 06:29N 36°53' E 030°42'0 0.0
2018-May-08 05:59N 36°53' E 030°42'0 0.0
2018-May-08 05:26N 36°53' E 030°42'0 0.0
2018-May-08 04:59N 36°53' E 030°42'0 0.0
2018-May-08 04:29N 36°53' E 030°42'0 0.0
2018-May-08 03:59N 36°53' E 030°42'0 0.0
2018-May-08 03:29N 36°53' E 030°42'0 0.0
2018-May-08 02:59N 36°53' E 030°42'0 0.0
2018-May-08 02:26N 36°53' E 030°42'0 0.0
2018-May-08 01:56N 36°53' E 030°42'0 0.0
2018-May-08 01:29N 36°53' E 030°42'0 0.0
2018-May-08 00:59N 36°53' E 030°42'0 0.0
2018-May-08 00:29N 36°53' E 030°42'0 0.0
2018-May-07 23:59N 36°53' E 030°42'0 0.0
2018-May-07 23:26N 36°53' E 030°42'0 0.0
2018-May-07 22:59N 36°53' E 030°42'0 0.0
2018-May-07 22:29N 36°53' E 030°42'0 0.0
2018-May-07 21:53N 36°53' E 030°42'0 0.0
2018-May-07 21:29N 36°53' E 030°42'0 0.0
2018-May-07 20:53N 36°53' E 030°42'0 0.0
2018-May-07 20:23N 36°53' E 030°42'0 0.0
2018-May-07 19:59N 36°53' E 030°42'0 0.0
2018-May-07 19:26N 36°53' E 030°42'0 0.0
2018-May-07 18:56N 36°53' E 030°42'0 0.0
2018-May-07 18:29N 36°53' E 030°42'0 0.0
2018-May-07 17:56N 36°53' E 030°42'2 3.7
2018-May-07 17:29N 36°52' E 030°41'817.8
2018-May-07 17:00N 36°44' E 030°37'814.0
2018-May-07 16:26N 36°36' E 030°34'0 0.0
2018-May-07 15:57N 36°36' E 030°34'0 0.0
2018-May-07 15:30N 36°36' E 030°34'2 2.9
2018-May-07 14:59N 36°38' E 030°34'817.3
2018-May-07 14:30N 36°46' E 030°37'815.6
2018-May-07 13:57N 36°53' E 030°42'0 0.0
2018-May-07 13:30N 36°53' E 030°42'0 0.0
2018-May-07 13:00N 36°53' E 030°42'0 0.0
2018-May-07 12:30N 36°53' E 030°42'0 0.0
2018-May-07 12:00N 36°53' E 030°42'0 0.0
2018-May-07 11:21N 36°53' E 030°42'0 0.0
2018-May-07 11:00N 36°53' E 030°42'0 0.0
2018-May-07 10:30N 36°53' E 030°42'0 0.0
2018-May-07 09:48N 36°53' E 030°42'0 0.0
2018-May-07 09:27N 36°53' E 030°42'0 0.0
2018-May-07 09:00N 36°53' E 030°42'1 1.2
2018-May-07 08:30N 36°53' E 030°42'918.4
2018-May-07 08:00N 36°44' E 030°37'917.1
2018-May-07 07:30N 36°36' E 030°34'0 0.1
2018-May-07 07:01N 36°36' E 030°34'917.9
2018-May-07 06:31N 36°44' E 030°38'914.2
2018-May-07 05:52N 36°53' E 030°42'0 0.0
2018-May-07 05:28N 36°53' E 030°42'0 0.0
2018-May-07 04:55N 36°53' E 030°42'0 0.0
2018-May-07 04:28N 36°53' E 030°42'0 0.0
2018-May-07 03:58N 36°53' E 030°42'0 0.0
2018-May-07 03:28N 36°53' E 030°42'0 0.0
2018-May-07 02:58N 36°53' E 030°42'0 0.0
2018-May-07 02:28N 36°53' E 030°42'0 0.0
2018-May-07 01:58N 36°53' E 030°42'0 0.0
2018-May-07 01:28N 36°53' E 030°42'0 0.0
2018-May-07 00:58N 36°53' E 030°42'0 0.0
2018-May-07 00:28N 36°53' E 030°42'0 0.0
2018-May-06 23:58N 36°53' E 030°42'0 0.0
2018-May-06 23:16N 36°53' E 030°42'0 0.0
2018-May-06 22:55N 36°53' E 030°42'0 0.0
2018-May-06 22:25N 36°53' E 030°42'0 0.0
2018-May-06 21:58N 36°53' E 030°42'0 0.0
2018-May-06 21:28N 36°53' E 030°42'0 0.0
2018-May-06 20:52N 36°53' E 030°42'0 0.0
2018-May-06 20:25N 36°53' E 030°42'0 0.0
2018-May-06 19:58N 36°53' E 030°42'0 0.0
2018-May-06 19:25N 36°53' E 030°42'0 0.0
2018-May-06 18:58N 36°53' E 030°42'0 0.0
2018-May-06 18:28N 36°53' E 030°42'0 0.0
2018-May-06 17:31N 36°53' E 030°42'0 0.0
2018-May-06 17:19N 36°53' E 030°42'0 0.0
2018-May-06 15:37N 36°53' E 030°42'0 0.0
2018-May-06 15:28N 36°53' E 030°42'0 0.0
2018-May-06 14:55N 36°53' E 030°42'0 0.0
2018-May-06 14:28N 36°53' E 030°42'0 0.0
2018-May-06 13:58N 36°53' E 030°42'0 0.0
2018-May-06 13:25N 36°53' E 030°42'0 0.0
2018-May-06 12:52N 36°53' E 030°42'0 0.0
2018-May-06 12:28N 36°53' E 030°42'0 0.0
2018-May-06 11:58N 36°53' E 030°42'0 0.0
2018-May-06 11:16N 36°53' E 030°42'0 0.0
2018-May-06 10:52N 36°53' E 030°42'0 0.0
2018-May-06 10:28N 36°53' E 030°42'0 0.0
2018-May-06 09:58N 36°53' E 030°42'0 0.0
2018-May-06 09:28N 36°53' E 030°42'0 0.0
2018-May-06 08:58N 36°53' E 030°42'0 0.0
2018-May-06 08:22N 36°53' E 030°42'0 0.0
2018-May-06 07:58N 36°53' E 030°42'0 0.0
2018-May-06 07:25N 36°53' E 030°42'0 0.0
2018-May-06 06:58N 36°53' E 030°42'0 0.0
2018-May-06 06:22N 36°53' E 030°42'0 0.0
2018-May-06 05:55N 36°53' E 030°42'0 0.0
2018-May-06 05:22N 36°53' E 030°42'0 0.0
2018-May-06 04:49N 36°53' E 030°42'0 0.0
2018-May-06 04:28N 36°53' E 030°42'0 0.0
2018-May-06 03:52N 36°53' E 030°42'0 0.0
2018-May-06 03:25N 36°53' E 030°42'0 0.0
2018-May-06 01:25N 36°53' E 030°42'0 0.0
2018-May-06 00:49N 36°53' E 030°42'0 0.0
2018-May-06 00:10N 36°53' E 030°42'0 0.0
2018-May-05 23:55N 36°53' E 030°42'0 0.0
2018-May-05 22:13N 36°53' E 030°42'0 0.0
2018-May-05 21:49N 36°53' E 030°42'0 0.0
2018-May-05 21:19N 36°53' E 030°42'0 0.0
2018-May-05 20:55N 36°53' E 030°42'0 0.0
2018-May-05 20:25N 36°53' E 030°42'0 0.0
2018-May-05 19:55N 36°53' E 030°42'0 0.0
2018-May-05 18:25N 36°53' E 030°42'0 0.4
2018-May-05 17:28N 36°53' E 030°42'918.4
2018-May-05 17:00N 36°45' E 030°38'918.2
2018-May-05 16:30N 36°36' E 030°34'0 0.1
2018-May-05 15:58N 36°36' E 030°34'0 0.0
2018-May-05 15:24N 36°36' E 030°34'2 3.5
2018-May-05 14:57N 36°38' E 030°35'818.0
2018-May-05 14:31N 36°45' E 030°38'  

Dump ship's entire track history